This is the latest recevied weather packets stored in our database for station/object F1JBR-10. If no packets are shown the sender has not sent any weather packets the latest 10 day(s).
| Time | Temp. | Humidity | Pressure | Rain* | Wind** | Luminosity | Snow |
|---|---|---|---|---|---|---|---|
| 1787595151 | 25.56° C | 57% | 1002.8 hPa | - | - | - | - |
| 1787594250 | 25.56° C | 57% | 1002.7 hPa | - | - | - | - |
| 1787593350 | 26.11° C | 56% | 1002.9 hPa | - | - | - | - |
| 1787592450 | 26.11° C | 56% | 1003 hPa | - | - | - | - |
| 1787591550 | 26.67° C | 55% | 1003.2 hPa | - | - | - | - |
| 1787590650 | 26.67° C | 54% | 1003.7 hPa | - | - | - | - |
| 1787589750 | 27.22° C | 54% | 1003.7 hPa | - | - | - | - |
| 1787588849 | 27.22° C | 54% | 1004.2 hPa | - | - | - | - |
| 1787587948 | 26.67° C | 55% | 1004.3 hPa | - | - | - | - |
| 1787587048 | 25.56° C | 59% | 1004.4 hPa | - | - | - | - |
| 1787586147 | 23.33° C | 66% | 1007.4 hPa | - | - | - | - |
| 1787579182 | 24.44° C | 54% | 1005.1 hPa | - | - | - | - |
| 1787578281 | 24.44° C | 53% | 1005.3 hPa | - | - | - | - |
| 1787577381 | 25° C | 51% | 1005.1 hPa | - | - | - | - |
| 1787576481 | 24.44° C | 51% | 1004.9 hPa | - | - | - | - |
| 1787575581 | 24.44° C | 52% | 1005.1 hPa | - | - | - | - |
| 1787574681 | 24.44° C | 52% | 1005.1 hPa | - | - | - | - |
| 1787573781 | 23.89° C | 54% | 1005 hPa | - | - | - | - |
| 1787572881 | 23.89° C | 54% | 1005.4 hPa | - | - | - | - |
| 1787571980 | 23.89° C | 54% | 1005.4 hPa | - | - | - | - |
| 1787571080 | 23.89° C | 54% | 1005.8 hPa | - | - | - | - |
| 1787570180 | 23.89° C | 54% | 1006 hPa | - | - | - | - |
| 1787569280 | 23.89° C | 54% | 1006 hPa | - | - | - | - |
| 1787568380 | 23.89° C | 54% | 1006.2 hPa | - | - | - | - |
| 1787567480 | 23.89° C | 54% | 1006.2 hPa | - | - | - | - |
* Rain since midnight (hover to see other rain measurements)
** Current wind speed in m/s (hover to see current wind gust speed)